createdAt,value
2023-03-03T00:00:30.289Z,5.20
2023-03-03T00:08:15.489Z,5.10
2023-03-03T00:14:35.107Z,5.10
2023-03-03T00:20:53.952Z,5.10
2023-03-03T00:26:49.213Z,5.00
2023-03-03T00:32:47.081Z,4.90
2023-03-03T00:39:20.476Z,4.90
2023-03-03T00:45:39.069Z,4.90
2023-03-03T00:51:34.423Z,4.90
2023-03-03T00:57:30.215Z,4.80
2023-03-03T01:03:48.692Z,4.80
2023-03-03T01:10:07.372Z,4.80
2023-03-03T01:16:01.942Z,4.60
2023-03-03T01:21:56.422Z,4.60
2023-03-03T01:28:27.047Z,4.60
2023-03-03T01:34:45.414Z,4.70
2023-03-03T01:40:39.821Z,4.60
2023-03-03T01:46:42.963Z,4.60
2023-03-03T01:53:02.502Z,4.60
2023-03-03T01:59:21.752Z,4.60
2023-03-03T02:05:16.124Z,4.50
2023-03-03T02:11:10.959Z,4.50
2023-03-03T02:17:29.421Z,4.50
2023-03-03T02:24:06.421Z,4.50
2023-03-03T02:30:30.197Z,4.40
2023-03-03T02:36:32.003Z,4.40
2023-03-03T02:42:50.485Z,4.40
2023-03-03T02:49:09.392Z,4.50
2023-03-03T02:55:03.870Z,4.40
2023-03-03T03:01:00.714Z,4.40
2023-03-03T03:07:19.224Z,4.40
2023-03-03T03:13:37.584Z,4.50
2023-03-03T03:19:32.005Z,4.50
2023-03-03T03:25:26.477Z,4.50
2023-03-03T03:31:56.963Z,4.50
2023-03-03T03:38:16.627Z,4.50
2023-03-03T03:44:11.006Z,4.50
2023-03-03T03:50:05.909Z,4.50
2023-03-03T03:56:24.408Z,4.60
2023-03-03T04:02:42.860Z,4.70
2023-03-03T04:08:37.283Z,4.60
2023-03-03T04:14:31.962Z,4.60
2023-03-03T04:20:50.521Z,4.60
2023-03-03T04:27:09.576Z,4.70
2023-03-03T04:33:03.987Z,4.60
2023-03-03T04:38:59.434Z,4.60
2023-03-03T04:45:17.976Z,4.60
2023-03-03T04:51:36.344Z,4.60
2023-03-03T04:57:30.729Z,4.60
2023-03-03T05:03:26.963Z,4.60
2023-03-03T05:09:45.453Z,4.60
2023-03-03T05:16:04.097Z,4.60
2023-03-03T05:21:58.954Z,4.60
2023-03-03T05:27:55.015Z,4.70
2023-03-03T05:34:25.513Z,4.80
2023-03-03T05:40:43.925Z,4.80
2023-03-03T05:46:38.320Z,4.80
2023-03-03T05:52:32.801Z,4.80
2023-03-03T05:58:51.280Z,4.90
2023-03-03T06:05:09.718Z,4.90
2023-03-03T06:11:04.126Z,4.90
2023-03-03T06:16:58.587Z,4.90
2023-03-03T06:23:17.062Z,4.90
2023-03-03T06:29:35.400Z,4.90
2023-03-03T06:35:29.808Z,5.00
2023-03-03T06:41:24.307Z,5.00
2023-03-03T06:47:42.814Z,5.00
2023-03-03T06:54:11.520Z,5.00
2023-03-03T07:00:15.830Z,5.00
2023-03-03T07:06:19.533Z,5.00
2023-03-03T07:12:38.042Z,5.10
2023-03-03T07:18:56.399Z,5.20
2023-03-03T07:24:52.908Z,5.30
2023-03-03T07:30:48.656Z,5.40
2023-03-03T07:37:38.577Z,5.50
2023-03-03T07:44:07.295Z,5.50
2023-03-03T07:50:01.908Z,5.60
2023-03-03T07:55:57.394Z,5.50
2023-03-03T08:02:33.751Z,5.60
2023-03-03T08:08:52.342Z,5.60
2023-03-03T08:14:46.700Z,5.70
2023-03-03T08:20:45.691Z,5.40
2023-03-03T08:27:05.782Z,5.40
2023-03-03T08:33:24.116Z,5.30
2023-03-03T08:39:18.585Z,5.00
2023-03-03T08:45:14.077Z,5.10
2023-03-03T08:51:34.536Z,5.20
2023-03-03T08:57:52.939Z,5.70
2023-03-03T09:03:47.311Z,5.50
2023-03-03T09:09:41.787Z,5.30
2023-03-03T09:16:01.262Z,5.20
2023-03-03T09:22:20.820Z,5.30
2023-03-03T09:28:24.483Z,5.70
2023-03-03T09:34:27.998Z,5.90
2023-03-03T09:41:14.862Z,6.10
2023-03-03T09:47:42.264Z,6.00
2023-03-03T09:53:42.775Z,5.90
2023-03-03T09:59:58.746Z,5.80
2023-03-03T10:06:23.768Z,6.20
2023-03-03T10:12:57.400Z,6.40
2023-03-03T10:18:55.182Z,6.20
2023-03-03T10:25:27.275Z,6.10
2023-03-03T10:31:45.797Z,6.20
2023-03-03T10:38:19.582Z,6.50
2023-03-03T10:44:13.929Z,6.50
2023-03-03T10:50:34.050Z,6.70
2023-03-03T10:57:27.006Z,7.10
2023-03-03T11:03:52.229Z,7.10
2023-03-03T11:09:50.908Z,7.10
2023-03-03T11:16:06.418Z,7.00
2023-03-03T11:22:39.309Z,7.10
2023-03-03T11:29:09.901Z,7.50
2023-03-03T11:35:19.481Z,7.60
2023-03-03T11:41:51.661Z,7.60
2023-03-03T11:48:44.129Z,8.10
2023-03-03T11:55:24.005Z,8.10
2023-03-03T12:01:18.419Z,8.30
2023-03-03T12:07:52.005Z,8.30
2023-03-03T12:14:18.091Z,8.30
2023-03-03T12:20:57.107Z,8.50
2023-03-03T12:26:56.931Z,8.90
2023-03-03T12:33:08.476Z,9.20
2023-03-03T12:39:36.084Z,9.10
2023-03-03T12:45:56.363Z,8.90
2023-03-03T12:52:12.529Z,9.30
2023-03-03T12:58:45.337Z,9.50
2023-03-03T13:05:09.992Z,9.30
2023-03-03T13:11:43.847Z,9.80
2023-03-03T13:17:39.397Z,9.40
2023-03-03T13:23:49.062Z,9.00
2023-03-03T13:30:23.358Z,8.80
2023-03-03T13:36:43.601Z,8.80
2023-03-03T13:42:38.012Z,9.00
2023-03-03T13:48:47.592Z,8.70
2023-03-03T13:55:27.061Z,8.60
2023-03-03T14:01:52.417Z,9.00
2023-03-03T14:07:52.487Z,9.00
2023-03-03T14:13:58.950Z,8.50
2023-03-03T14:20:29.596Z,8.70
2023-03-03T14:26:49.728Z,8.80
2023-03-03T14:32:45.963Z,9.20
2023-03-03T14:38:42.175Z,8.80
2023-03-03T14:45:01.275Z,9.00
2023-03-03T14:51:27.765Z,9.20
2023-03-03T14:57:41.728Z,8.80
2023-03-03T15:03:39.039Z,8.70
2023-03-03T15:09:57.525Z,8.60
2023-03-03T15:16:19.537Z,8.70
2023-03-03T15:22:22.551Z,8.60
2023-03-03T15:28:36.052Z,8.60
2023-03-03T15:35:00.419Z,8.30
2023-03-03T15:41:37.585Z,8.00
2023-03-03T15:47:31.914Z,7.80
2023-03-03T15:53:41.554Z,7.90
2023-03-03T16:00:34.909Z,7.80
2023-03-03T16:06:57.692Z,7.60
2023-03-03T16:12:52.265Z,7.40
2023-03-03T16:19:06.104Z,7.20
2023-03-03T16:25:45.194Z,7.10
2023-03-03T16:32:10.389Z,7.20
2023-03-03T16:38:34.023Z,7.20
2023-03-03T16:44:45.059Z,7.10
2023-03-03T16:51:25.446Z,6.90
2023-03-03T16:58:16.230Z,7.00
2023-03-03T17:04:24.409Z,6.90
2023-03-03T17:10:26.949Z,6.90
2023-03-03T17:17:12.280Z,7.00
2023-03-03T17:23:45.887Z,6.90
2023-03-03T17:29:48.578Z,6.80
2023-03-03T17:36:19.511Z,6.80
2023-03-03T17:42:53.974Z,6.70
2023-03-03T17:49:30.859Z,6.70
2023-03-03T17:55:36.462Z,6.60
2023-03-03T18:01:51.195Z,6.60
2023-03-03T18:08:28.242Z,6.70
2023-03-03T18:15:05.370Z,6.70
2023-03-03T18:21:09.835Z,6.80
2023-03-03T18:27:42.097Z,6.90
2023-03-03T18:34:03.967Z,6.90
2023-03-03T18:40:22.325Z,6.90
2023-03-03T18:46:22.881Z,6.90
2023-03-03T18:52:34.908Z,6.80
2023-03-03T18:58:53.417Z,6.90
2023-03-03T19:05:12.808Z,6.90
2023-03-03T19:11:19.359Z,6.80
2023-03-03T19:17:22.658Z,6.80
2023-03-03T19:24:00.561Z,6.80
2023-03-03T19:30:37.774Z,6.90
2023-03-03T19:36:38.192Z,6.90
2023-03-03T19:42:47.557Z,7.00
2023-03-03T19:49:39.911Z,7.00
2023-03-03T19:56:06.000Z,7.00
2023-03-03T20:02:15.267Z,7.00
2023-03-03T20:08:36.473Z,7.00
2023-03-03T20:15:12.507Z,6.90
2023-03-03T20:21:49.234Z,6.90
2023-03-03T20:27:46.780Z,6.80
2023-03-03T20:33:50.509Z,6.80
2023-03-03T20:40:36.970Z,6.80
2023-03-03T20:46:55.391Z,6.90
2023-03-03T20:52:56.232Z,7.00
2023-03-03T20:58:56.779Z,6.90
2023-03-03T21:05:20.030Z,7.00
2023-03-03T21:11:38.410Z,7.00
2023-03-03T21:17:32.764Z,6.80
2023-03-03T21:23:27.259Z,6.80
2023-03-03T21:29:45.748Z,6.80
2023-03-03T21:36:04.252Z,6.90
2023-03-03T21:42:05.784Z,6.90
2023-03-03T21:48:02.694Z,7.00
2023-03-03T21:54:21.286Z,7.00
2023-03-03T22:00:40.150Z,7.00
2023-03-03T22:06:34.485Z,6.80
2023-03-03T22:12:28.949Z,6.90
2023-03-03T22:19:01.717Z,6.90
2023-03-03T22:25:20.978Z,6.90
2023-03-03T22:31:15.910Z,7.00
2023-03-03T22:37:10.400Z,7.00
2023-03-03T22:43:29.847Z,6.90
2023-03-03T22:49:48.201Z,7.00
2023-03-03T22:55:42.677Z,6.90
2023-03-03T23:01:37.127Z,6.90
2023-03-03T23:07:57.604Z,7.10
2023-03-03T23:14:15.999Z,7.10
2023-03-03T23:20:15.515Z,7.10
2023-03-03T23:26:10.321Z,7.10
2023-03-03T23:32:28.870Z,7.00
2023-03-03T23:38:47.363Z,7.00
2023-03-03T23:44:41.732Z,6.90
2023-03-03T23:50:38.160Z,6.90
2023-03-03T23:56:56.697Z,7.00
